Time;durP1;ratioP1;P1;durP2;ratioP2;P2;SDS_P1;SDS_P2;PMS_P1;PMS_P2;Temp;Humidity;BMP_temperature;BMP_pressure;BME280_temperature;BME280_humidity;BME280_pressure;Samples;Min_cycle;Max_cycle;Signal;HPM_P1;HPM_P2
2022/09/24 00:01:12;;;;;;;31.23;17.58;;;;;;;12.00;100.00;101350.78;5115820;28;20169;-68
2022/09/24 00:03:39;;;;;;;32.08;18.00;;;;;;;11.98;100.00;101350.94;5115133;28;20042;-70
2022/09/24 00:06:05;;;;;;;30.42;17.48;;;;;;;11.96;100.00;101349.41;5115299;28;20110;-69
2022/09/24 00:08:31;;;;;;;29.92;17.38;;;;;;;11.96;100.00;101352.06;5113725;28;20031;-69
2022/09/24 00:11:01;;;;;;;34.22;16.45;;;;;;;11.93;100.00;101347.00;5115285;28;20061;-69
2022/09/24 00:13:26;;;;;;;27.40;16.20;;;;;;;11.91;100.00;101341.78;5115201;28;20113;-69
2022/09/24 00:15:52;;;;;;;25.85;15.15;;;;;;;11.92;100.00;101342.63;5114941;28;20457;-69
2022/09/24 00:18:19;;;;;;;25.80;15.18;;;;;;;11.90;100.00;101339.25;5115106;28;20055;-69
2022/09/24 00:20:44;;;;;;;29.15;16.42;;;;;;;11.89;100.00;101341.06;5113567;28;20055;-69
2022/09/24 00:23:10;;;;;;;30.33;17.63;;;;;;;11.87;100.00;101332.34;5115378;28;20059;-70
2022/09/24 00:28:32;;;;;;;36.35;17.02;;;;;;;11.82;100.00;101338.09;5114937;28;20055;-69
2022/09/24 00:30:58;;;;;;;26.15;14.65;;;;;;;11.83;100.00;101347.75;5113360;28;20023;-71
2022/09/24 00:33:27;;;;;;;27.77;16.17;;;;;;;11.83;100.00;101345.09;5096961;28;20036;-70
2022/09/24 00:35:52;;;;;;;32.10;17.50;;;;;;;11.85;100.00;101338.78;5113275;28;20042;-70
2022/09/24 00:38:18;;;;;;;34.20;17.75;;;;;;;11.83;100.00;101337.09;5114528;28;20035;-70
2022/09/24 00:40:43;;;;;;;30.13;16.95;;;;;;;11.81;100.00;101338.22;5114358;28;20027;-71
2022/09/24 00:43:34;;;;;;;30.85;17.02;;;;;;;11.82;100.00;101338.09;5114021;28;20039;-71
2022/09/24 00:46:12;;;;;;;32.25;18.17;;;;;;;11.82;100.00;101334.56;5113988;28;20030;-70
2022/09/24 00:48:39;;;;;;;40.75;19.77;;;;;;;11.82;100.00;101335.44;5113531;28;20126;-70
2022/09/24 00:51:05;;;;;;;35.13;18.20;;;;;;;11.83;100.00;101336.25;5114413;28;20035;-70
2022/09/24 00:53:32;;;;;;;32.28;18.42;;;;;;;11.84;100.00;101329.97;5114500;28;20027;-71
2022/09/24 00:56:00;;;;;;;38.92;19.13;;;;;;;11.84;100.00;101329.97;5114518;28;20112;-71
2022/09/24 00:58:27;;;;;;;33.63;18.38;;;;;;;11.84;100.00;101329.97;5114244;28;20118;-71
2022/09/24 01:01:00;;;;;;;33.20;18.15;;;;;;;11.83;100.00;101326.44;5114033;28;20031;-70
2022/09/24 01:03:27;;;;;;;32.03;18.23;;;;;;;11.83;100.00;101323.75;5114504;28;20452;-69
2022/09/24 01:05:54;;;;;;;30.38;17.02;;;;;;;11.84;100.00;101319.28;5114024;28;20038;-70
2022/09/24 01:08:20;;;;;;;33.50;17.58;;;;;;;11.82;100.00;101314.09;5114367;28;20088;-70
2022/09/24 01:11:08;;;;;;;32.20;17.95;;;;;;;11.79;100.00;101310.84;5113934;28;20043;-71
2022/09/24 01:13:45;;;;;;;34.05;18.38;;;;;;;11.78;100.00;101309.19;5114981;28;20332;-70
2022/09/24 01:16:20;;;;;;;25.80;15.68;;;;;;;11.77;100.00;101310.16;5113994;28;20542;-70
2022/09/24 01:18:52;;;;;;;31.42;17.60;;;;;;;11.76;100.00;101306.66;5113456;28;20126;-70
2022/09/24 01:21:31;;;;;;;35.10;17.52;;;;;;;11.76;100.00;101301.31;5114239;28;20023;-70
2022/09/24 01:24:27;;;;;;;31.48;17.67;;;;;;;11.77;100.00;101304.81;5112633;28;20076;-71
2022/09/24 01:27:18;;;;;;;30.58;16.95;;;;;;;11.76;100.00;101298.66;5113758;28;20114;-70
2022/09/24 01:30:02;;;;;;;33.80;17.83;;;;;;;11.75;100.00;101302.28;5113513;28;20043;-71
2022/09/24 01:32:49;;;;;;;33.05;18.38;;;;;;;11.75;100.00;101294.28;5114399;28;20039;-70
2022/09/24 01:35:24;;;;;;;32.00;17.25;;;;;;;11.74;100.00;101287.25;5113352;28;20405;-70
2022/09/24 01:37:57;;;;;;;33.53;18.00;;;;;;;11.73;100.00;101290.91;5114418;28;20031;-70
2022/09/24 01:40:26;;;;;;;34.33;16.95;;;;;;;11.72;100.00;101286.56;5114529;28;20023;-70
2022/09/24 01:42:53;;;;;;;32.60;16.90;;;;;;;11.69;100.00;101285.97;5114151;28;20035;-70
2022/09/24 01:45:20;;;;;;;31.27;17.00;;;;;;;11.67;100.00;101287.94;5113967;28;20031;-69
2022/09/24 01:47:46;;;;;;;30.48;17.92;;;;;;;11.65;100.00;101275.59;5113612;28;20224;-70
2022/09/24 01:50:15;;;;;;;34.33;16.25;;;;;;;11.64;100.00;101283.72;5113253;28;20031;-70
2022/09/24 01:53:06;;;;;;;31.80;17.33;;;;;;;11.64;100.00;101281.06;5114086;28;20413;-70
2022/09/24 01:55:37;;;;;;;30.97;16.93;;;;;;;11.65;100.00;101285.41;5103697;28;20036;-70
2022/09/24 01:58:19;;;;;;;32.85;17.45;;;;;;;11.64;100.00;101276.59;5117629;28;20024;-69
2022/09/24 02:00:49;;;;;;;33.88;18.13;;;;;;;11.66;100.00;101281.78;5117891;28;20024;-70
2022/09/24 02:03:22;;;;;;;35.47;19.10;;;;;;;11.67;100.00;101279.94;5118193;28;20119;-70
2022/09/24 02:05:53;;;;;;;37.85;19.27;;;;;;;11.65;100.00;101264.94;5117861;28;20110;-70
2022/09/24 02:08:23;;;;;;;37.92;19.05;;;;;;;11.65;100.00;101272.91;5117580;27;20455;-70
2022/09/24 02:10:53;;;;;;;36.53;19.00;;;;;;;11.63;100.00;101263.41;5117337;28;20031;-70
2022/09/24 02:13:23;;;;;;;41.92;20.88;;;;;;;11.61;100.00;101257.34;5118188;28;20035;-70
2022/09/24 02:15:52;;;;;;;38.13;20.25;;;;;;;11.56;100.00;101248.91;5117576;28;20111;-70
2022/09/24 02:18:23;;;;;;;42.35;21.55;;;;;;;11.51;100.00;101244.00;5117005;28;20047;-70
2022/09/24 02:20:50;;;;;;;45.75;22.60;;;;;;;11.47;100.00;101238.06;5117334;28;20035;-70
2022/09/24 02:23:18;;;;;;;47.72;23.33;;;;;;;11.41;100.00;101241.28;5117217;28;20035;-70
2022/09/24 02:25:51;;;;;;;49.53;24.25;;;;;;;11.38;100.00;101232.72;5117179;28;20027;-70
2022/09/24 02:28:17;;;;;;;51.42;24.92;;;;;;;11.34;100.00;101244.63;5117474;28;20034;-70
2022/09/24 02:30:50;;;;;;;50.20;24.23;;;;;;;11.28;100.00;101246.84;5117104;28;20031;-70
2022/09/24 02:36:00;;;;;;;58.25;27.48;;;;;;;11.25;100.00;101246.28;5117466;28;20047;-70
2022/09/24 02:38:26;;;;;;;62.45;28.15;;;;;;;11.25;100.00;101247.09;5116823;27;20036;-70
2022/09/24 02:40:53;;;;;;;61.03;29.52;;;;;;;11.27;100.00;101246.97;5116695;28;20103;-70
2022/09/24 02:43:18;;;;;;;61.10;27.95;;;;;;;11.25;100.00;101246.28;5117003;28;20051;-70
2022/09/24 02:45:43;;;;;;;64.25;28.73;;;;;;;11.25;100.00;101248.94;5116612;27;20036;-70
2022/09/24 02:48:09;;;;;;;67.05;30.13;;;;;;;11.25;100.00;101246.28;5115450;28;20091;-70
2022/09/24 02:50:34;;;;;;;68.63;30.75;;;;;;;11.24;100.00;101248.09;5115719;28;20483;-70
2022/09/24 02:53:00;;;;;;;75.75;31.48;;;;;;;11.28;100.00;101243.34;5117102;28;20063;-70
2022/09/24 02:55:26;;;;;;;70.70;30.70;;;;;;;11.28;100.00;101254.81;5116846;28;20032;-70
2022/09/24 02:57:51;;;;;;;68.55;29.92;;;;;;;11.32;100.00;101249.25;5115214;28;20054;-70
2022/09/24 03:00:19;;;;;;;70.07;30.40;;;;;;;11.34;100.00;101256.13;5116648;28;20455;-70
2022/09/24 03:02:46;;;;;;;64.95;29.00;;;;;;;11.34;100.00;101240.13;5116365;28;20035;-70
2022/09/24 03:05:12;;;;;;;72.53;29.80;;;;;;;11.39;100.00;101247.72;5116359;28;20082;-70
2022/09/24 03:07:37;;;;;;;69.43;29.00;;;;;;;11.41;100.00;101245.78;5115734;27;20034;-70
2022/09/24 03:10:03;;;;;;;70.13;29.02;;;;;;;11.41;100.00;101248.44;5116168;28;20043;-70
2022/09/24 03:12:28;;;;;;;69.68;29.42;;;;;;;11.44;100.00;101249.00;5116260;28;20114;-70
2022/09/24 03:14:53;;;;;;;69.60;29.35;;;;;;;11.45;100.00;101247.22;5115151;28;20046;-70
2022/09/24 03:17:19;;;;;;;68.55;29.20;;;;;;;11.47;100.00;101250.56;5115577;28;20031;-70
2022/09/24 03:19:44;;;;;;;67.82;29.25;;;;;;;11.46;100.00;101243.53;5116409;28;20160;-70
2022/09/24 03:22:09;;;;;;;73.72;29.95;;;;;;;11.46;100.00;101243.53;5115672;28;20118;-70
2022/09/24 03:24:35;;;;;;;69.75;30.27;;;;;;;11.46;100.00;101252.41;5116250;28;20103;-70
2022/09/24 03:27:00;;;;;;;67.55;30.13;;;;;;;11.46;100.00;101240.88;5116055;28;20110;-70
2022/09/24 03:32:09;;;;;;;71.50;30.67;;;;;;;11.48;100.00;101244.28;5114762;28;20062;-70
2022/09/24 03:34:34;;;;;;;72.82;30.90;;;;;;;11.49;100.00;101248.59;5115453;28;20464;-70
2022/09/24 03:37:00;;;;;;;72.18;30.83;;;;;;;11.50;100.00;101241.47;5116141;28;20442;-70
2022/09/24 03:39:26;;;;;;;69.93;30.23;;;;;;;11.51;100.00;101249.31;5115594;28;20051;-70
2022/09/24 03:41:51;;;;;;;77.00;31.25;;;;;;;11.51;100.00;101249.31;5115625;28;20024;-70
2022/09/24 03:44:16;;;;;;;73.45;30.25;;;;;;;11.53;100.00;101252.69;5115426;28;20103;-69
2022/09/24 03:46:42;;;;;;;72.32;30.45;;;;;;;11.54;100.00;101250.84;5115961;28;20039;-70
2022/09/24 03:49:07;;;;;;;72.57;29.42;;;;;;;11.54;100.00;101238.41;5113861;28;20031;-70
2022/09/24 03:51:33;;;;;;;80.15;32.28;;;;;;;11.56;100.00;101243.59;5115850;28;20035;-70
2022/09/24 03:53:58;;;;;;;72.93;30.08;;;;;;;11.53;100.00;101239.38;5114612;28;20106;-70
2022/09/24 03:56:23;;;;;;;73.57;30.55;;;;;;;11.54;100.00;101249.06;5115304;28;20036;-70
2022/09/24 03:58:49;;;;;;;79.07;31.35;;;;;;;11.53;100.00;101250.03;5114258;28;20515;-71
2022/09/24 04:01:19;;;;;;;81.07;31.55;;;;;;;11.55;100.00;101249.88;5115242;28;20459;-70
2022/09/24 04:03:45;;;;;;;86.35;33.38;;;;;;;11.57;100.00;101248.78;5115535;28;20028;-71
2022/09/24 04:06:11;;;;;;;83.93;32.25;;;;;;;11.59;100.00;101245.97;5115157;28;20172;-71
2022/09/24 04:08:36;;;;;;;88.13;32.42;;;;;;;11.59;100.00;101254.81;5115657;28;20034;-71
2022/09/24 04:11:02;;;;;;;84.13;32.60;;;;;;;11.60;100.00;101245.84;5115095;28;20496;-70
2022/09/24 04:13:27;;;;;;;80.47;31.73;;;;;;;11.62;100.00;101248.38;5113898;28;20028;-70
2022/09/24 04:15:53;;;;;;;81.35;31.13;;;;;;;11.62;100.00;101253.72;5113769;28;20034;-70
2022/09/24 04:18:19;;;;;;;82.13;31.00;;;;;;;11.62;100.00;101259.88;5113376;28;20502;-70
2022/09/24 04:20:45;;;;;;;90.28;32.72;;;;;;;11.62;100.00;101259.03;5113619;28;20032;-71
2022/09/24 04:23:11;;;;;;;85.95;32.50;;;;;;;11.63;100.00;101263.41;5115600;28;20373;-71
2022/09/24 04:25:39;;;;;;;91.57;32.13;;;;;;;11.62;100.00;101267.03;5114598;28;20177;-70
2022/09/24 04:28:06;;;;;;;77.93;31.08;;;;;;;11.62;100.00;101262.53;5114677;28;20032;-71
2022/09/24 04:30:33;;;;;;;83.68;30.73;;;;;;;11.61;100.00;101262.66;5114878;28;20054;-70
2022/09/24 04:33:00;;;;;;;81.10;30.35;;;;;;;11.60;100.00;101253.84;5114921;28;20085;-71
2022/09/24 04:35:28;;;;;;;79.38;30.55;;;;;;;11.58;100.00;101258.44;5114572;28;20024;-70
2022/09/24 04:37:54;;;;;;;78.78;29.30;;;;;;;11.57;100.00;101254.13;5115112;28;20024;-72
2022/09/24 04:40:20;;;;;;;78.53;29.02;;;;;;;11.56;100.00;101249.75;5114402;28;20031;-70
2022/09/24 04:42:47;;;;;;;79.50;28.75;;;;;;;11.55;100.00;101256.06;5114226;28;20046;-71
2022/09/24 04:45:18;;;;;;;91.10;31.35;;;;;;;11.56;100.00;101248.91;5112815;28;20028;-70
2022/09/24 04:47:43;;;;;;;82.75;29.42;;;;;;;11.58;100.00;101249.63;5114482;28;20055;-71
2022/09/24 04:50:13;;;;;;;78.65;29.17;;;;;;;11.59;100.00;101251.31;5114354;28;20036;-70
2022/09/24 04:52:38;;;;;;;70.38;26.23;;;;;;;11.60;100.00;101250.34;5114791;28;20035;-70
2022/09/24 04:55:04;;;;;;;66.45;25.85;;;;;;;11.59;100.00;101243.31;5114268;28;20034;-70
2022/09/24 04:57:35;;;;;;;54.88;21.30;;;;;;;11.61;100.00;101244.88;5112911;28;20498;-70
2022/09/24 05:00:05;;;;;;;51.63;19.48;;;;;;;11.61;100.00;101242.22;5114356;28;20468;-70
2022/09/24 05:02:30;;;;;;;38.13;15.13;;;;;;;11.63;100.00;101247.41;5114438;28;20027;-70
2022/09/24 05:04:56;;;;;;;25.70;10.93;;;;;;;11.64;100.00;101247.25;5114149;28;20035;-71
2022/09/24 05:07:21;;;;;;;25.88;11.90;;;;;;;11.65;100.00;101254.25;5114278;28;20456;-71
2022/09/24 05:09:46;;;;;;;20.15;10.07;;;;;;;11.66;100.00;101244.47;5114047;28;20038;-70
2022/09/24 05:12:13;;;;;;;22.38;9.40;;;;;;;11.68;100.00;101245.16;5114213;28;20072;-71
2022/09/24 05:14:38;;;;;;;14.10;7.25;;;;;;;11.67;100.00;101246.13;5113624;28;20497;-71
2022/09/24 05:17:04;;;;;;;15.23;6.57;;;;;;;11.69;100.00;101252.19;5113915;28;20032;-70
2022/09/24 05:19:29;;;;;;;12.63;5.70;;;;;;;11.70;100.00;101255.69;5114168;28;20091;-71
2022/09/24 05:21:55;;;;;;;14.77;5.53;;;;;;;11.70;100.00;101258.34;5113840;28;20446;-70
2022/09/24 05:24:20;;;;;;;13.80;5.50;;;;;;;11.69;100.00;101251.31;5114000;28;20040;-71
2022/09/24 05:29:30;;;;;;;11.63;4.80;;;;;;;11.71;100.00;101254.72;5113166;28;20058;-71
2022/09/24 05:31:55;;;;;;;11.50;4.88;;;;;;;11.68;100.00;101262.97;5113482;28;20387;-71
2022/09/24 05:34:20;;;;;;;12.73;4.80;;;;;;;11.67;100.00;101267.44;5113949;28;20062;-71
2022/09/24 05:36:45;;;;;;;9.73;4.53;;;;;;;11.63;100.00;101268.72;5113724;28;20031;-70
2022/09/24 05:39:14;;;;;;;8.70;3.72;;;;;;;11.62;100.00;101270.53;5113575;28;20085;-71
2022/09/24 05:41:39;;;;;;;10.70;4.15;;;;;;;11.60;100.00;101271.66;5112479;28;20027;-70
2022/09/24 05:44:05;;;;;;;9.10;3.55;;;;;;;11.58;100.00;101279.75;5113622;28;20475;-70
2022/09/24 05:46:31;;;;;;;12.25;3.70;;;;;;;11.57;100.00;101270.09;5113856;28;20051;-70
2022/09/24 05:48:57;;;;;;;12.30;3.80;;;;;;;11.55;100.00;101281.88;5113615;28;20035;-71
2022/09/24 05:51:23;;;;;;;12.45;3.60;;;;;;;11.55;100.00;101277.38;5111797;28;20035;-71
2022/09/24 05:53:49;;;;;;;10.27;3.63;;;;;;;11.53;100.00;101281.16;5113565;28;20028;-70
2022/09/24 05:56:15;;;;;;;7.40;3.10;;;;;;;11.51;100.00;101281.31;5113397;28;20125;-71
2022/09/24 05:58:41;;;;;;;10.82;3.35;;;;;;;11.51;100.00;101288.44;5113550;28;20035;-70
2022/09/24 06:01:06;;;;;;;9.30;2.97;;;;;;;11.51;100.00;101288.44;5113607;28;20047;-70
2022/09/24 06:03:31;;;;;;;9.98;2.90;;;;;;;11.49;100.00;101291.22;5112145;28;20042;-69
2022/09/24 06:06:01;;;;;;;14.95;3.50;;;;;;;11.48;100.00;101294.91;5113696;28;20032;-71
2022/09/24 06:08:27;;;;;;;9.07;3.05;;;;;;;11.49;100.00;101309.06;5113571;28;20028;-70
2022/09/24 06:10:57;;;;;;;5.13;2.50;;;;;;;11.47;100.00;101303.88;5113363;28;20027;-70
2022/09/24 06:13:23;;;;;;;9.68;2.70;;;;;;;11.46;100.00;101305.69;5114159;28;20023;-70
2022/09/24 06:15:48;;;;;;;10.73;3.17;;;;;;;11.46;100.00;101311.03;5112367;28;20068;-70
2022/09/24 06:18:13;;;;;;;12.20;2.60;;;;;;;11.47;100.00;101311.84;5112922;28;20055;-70
2022/09/24 06:20:39;;;;;;;8.40;2.58;;;;;;;11.47;100.00;101311.84;5113237;28;20031;-70
2022/09/24 06:23:05;;;;;;;8.98;3.33;;;;;;;11.49;100.00;101311.72;5112460;28;20039;-70
2022/09/24 06:25:30;;;;;;;11.30;3.38;;;;;;;11.49;100.00;101315.22;5113119;28;20040;-70
2022/09/24 06:28:01;;;;;;;9.02;3.50;;;;;;;11.52;100.00;101322.94;5113612;28;20032;-70
2022/09/24 06:30:28;;;;;;;10.27;3.10;;;;;;;11.56;100.00;101327.03;5113643;28;20032;-70
2022/09/24 06:32:54;;;;;;;10.48;2.72;;;;;;;11.62;100.00;101321.16;5113199;28;20027;-70
2022/09/24 06:35:19;;;;;;;13.30;2.92;;;;;;;11.66;100.00;101324.44;5113347;28;20046;-70
2022/09/24 06:37:48;;;;;;;7.85;2.92;;;;;;;11.69;100.00;101326.81;5112687;28;20396;-70
2022/09/24 06:40:13;;;;;;;8.27;2.67;;;;;;;11.73;100.00;101324.72;5112483;28;20463;-69
2022/09/24 06:42:39;;;;;;;14.52;3.50;;;;;;;11.76;100.00;101327.97;5113476;28;20073;-70
2022/09/24 06:45:05;;;;;;;9.93;2.85;;;;;;;11.79;100.00;101326.84;5116637;28;20452;-70
2022/09/24 06:47:30;;;;;;;17.73;3.40;;;;;;;11.78;100.00;101333.16;5116448;28;20040;-70
2022/09/24 06:49:55;;;;;;;14.95;3.05;;;;;;;11.81;100.00;101333.72;5116459;28;20093;-69
2022/09/24 06:52:22;;;;;;;12.32;2.92;;;;;;;11.83;100.00;101338.94;5116086;28;20031;-70
2022/09/24 06:54:47;;;;;;;12.63;2.67;;;;;;;11.83;100.00;101341.59;5116314;28;20055;-69
2022/09/24 06:57:13;;;;;;;17.48;3.58;;;;;;;11.82;100.00;101346.09;5116348;28;20035;-71
2022/09/24 06:59:41;;;;;;;15.68;2.85;;;;;;;11.81;100.00;101351.56;5115968;28;20480;-69
2022/09/24 07:02:09;;;;;;;17.88;3.35;;;;;;;11.81;100.00;101347.06;5115899;28;20101;-71
2022/09/24 07:04:34;;;;;;;21.00;3.80;;;;;;;11.81;100.00;101351.56;5116072;28;20115;-70
2022/09/24 07:10:02;;;;;;;13.27;2.53;;;;;;;11.77;100.00;101350.97;5092113;28;20047;-70
2022/09/24 07:12:29;;;;;;;15.43;2.65;;;;;;;11.80;100.00;101353.38;5116206;28;20062;-71
2022/09/24 07:14:56;;;;;;;17.75;3.40;;;;;;;11.81;100.00;101359.56;5115687;28;20114;-73
2022/09/24 07:17:21;;;;;;;14.77;2.83;;;;;;;11.78;100.00;101354.50;5115882;28;20024;-71
2022/09/24 07:19:47;;;;;;;15.35;2.88;;;;;;;11.78;100.00;101362.50;5114214;28;20051;-70
2022/09/24 07:22:12;;;;;;;13.63;2.55;;;;;;;11.83;100.00;101354.94;5114617;28;20525;-69
2022/09/24 07:24:38;;;;;;;15.35;2.72;;;;;;;11.87;100.00;101363.50;5114560;28;20027;-70
2022/09/24 07:27:04;;;;;;;15.38;2.50;;;;;;;11.88;100.00;101376.69;5114640;28;20036;-70
2022/09/24 07:29:30;;;;;;;10.27;2.00;;;;;;;11.92;100.00;101374.59;5115773;28;20051;-70
2022/09/24 07:31:56;;;;;;;11.23;2.10;;;;;;;11.95;100.00;101374.38;5114460;28;20533;-69
2022/09/24 07:34:21;;;;;;;9.27;2.50;;;;;;;11.99;100.00;101378.47;5114160;28;20122;-70
2022/09/24 07:36:47;;;;;;;18.17;2.25;;;;;;;12.04;100.00;101378.88;5115398;28;20031;-71
2022/09/24 07:39:13;;;;;;;15.52;2.35;;;;;;;12.04;100.00;101376.22;5115268;28;20478;-72
2022/09/24 07:41:40;;;;;;;10.63;2.15;;;;;;;12.09;100.00;101389.16;5114985;28;20498;-70
2022/09/24 07:44:06;;;;;;;15.40;2.70;;;;;;;12.14;100.00;101385.09;5115767;28;20035;-69
2022/09/24 07:46:32;;;;;;;16.90;2.35;;;;;;;12.20;100.00;101383.72;5115082;28;20031;-70
2022/09/24 07:48:57;;;;;;;18.13;2.72;;;;;;;12.21;100.00;101385.41;5113730;28;20123;-69
2022/09/24 07:51:27;;;;;;;10.13;2.25;;;;;;;12.31;100.00;101385.41;5113838;28;20040;-70
2022/09/24 07:53:53;;;;;;;15.18;2.35;;;;;;;12.37;100.00;101390.19;5115799;28;20038;-70
2022/09/24 07:56:19;;;;;;;15.35;2.10;;;;;;;12.42;100.00;101392.47;5114829;28;20479;-70
2022/09/24 07:58:49;;;;;;;16.52;2.92;;;;;;;12.45;100.00;101394.84;5113767;28;20093;-71
2022/09/24 08:01:16;;;;;;;12.77;2.22;;;;;;;12.47;100.00;101398.25;5114903;28;20030;-70
2022/09/24 08:03:42;;;;;;;9.30;2.00;;;;;;;12.48;100.00;101391.91;5114891;28;20043;-70
2022/09/24 08:06:08;;;;;;;15.63;2.55;;;;;;;12.49;100.00;101402.44;5114135;28;20046;-70
2022/09/24 08:08:34;;;;;;;17.55;2.50;;;;;;;12.52;100.00;101402.19;5114712;28;20032;-71
2022/09/24 08:11:06;;;;;;;11.70;2.38;;;;;;;12.58;100.00;101403.44;5114733;28;20478;-71
2022/09/24 08:13:33;;;;;;;10.07;2.10;;;;;;;12.66;100.00;101410.78;5114550;28;20028;-71
2022/09/24 08:15:59;;;;;;;17.50;2.65;;;;;;;12.67;100.00;101404.44;5115125;28;20040;-70
2022/09/24 08:18:24;;;;;;;14.38;2.45;;;;;;;12.67;100.00;101410.63;5113538;28;20071;-70
2022/09/24 08:20:50;;;;;;;15.20;2.47;;;;;;;12.64;100.00;101416.22;5114076;28;20071;-72
2022/09/24 08:23:16;;;;;;;18.55;3.15;;;;;;;12.59;100.00;101418.47;5113399;28;20442;-72
2022/09/24 08:25:41;;;;;;;15.13;2.22;;;;;;;12.57;100.00;101419.59;5114477;28;20040;-70
2022/09/24 08:28:09;;;;;;;14.23;2.95;;;;;;;12.55;100.00;101418.91;5113362;28;20089;-70
2022/09/24 08:30:35;;;;;;;7.15;2.08;;;;;;;12.61;100.00;101421.84;5114606;28;20096;-70
2022/09/24 08:33:00;;;;;;;11.02;2.40;;;;;;;12.64;100.00;101413.56;5114231;28;20472;-69
2022/09/24 08:35:26;;;;;;;10.35;2.72;;;;;;;12.74;100.00;101420.75;5114120;28;20426;-69
2022/09/24 08:37:54;;;;;;;13.52;2.17;;;;;;;12.78;100.00;101427.50;5114329;28;20042;-70
2022/09/24 08:40:27;;;;;;;10.35;1.83;;;;;;;12.85;100.00;101424.16;5114483;28;20114;-70
2022/09/24 08:43:20;;;;;;;11.20;2.00;;;;;;;12.95;100.00;101436.66;5113979;28;20072;-69
2022/09/24 08:48:39;;;;;;;11.25;2.10;;;;;;;13.04;100.00;101439.31;5114332;28;20051;-70
2022/09/24 08:51:11;;;;;;;10.20;2.70;;;;;;;13.16;100.00;101428.50;5114295;28;20032;-69
2022/09/24 08:54:04;;;;;;;10.90;1.83;;;;;;;13.20;100.00;101433.41;5114753;28;20028;-70
2022/09/24 08:56:33;;;;;;;10.02;2.30;;;;;;;13.29;100.00;101434.38;5114431;28;20030;-70
2022/09/24 08:59:13;;;;;;;6.95;1.55;;;;;;;13.33;100.00;101442.94;5114021;28;20419;-69
2022/09/24 09:01:49;;;;;;;10.48;1.67;;;;;;;13.38;100.00;101433.56;5114396;28;20026;-70
2022/09/24 09:04:32;;;;;;;7.78;1.63;;;;;;;13.48;100.00;101446.06;5114539;28;20161;-70
2022/09/24 09:07:03;;;;;;;15.38;2.08;;;;;;;13.48;100.00;101443.38;5114277;28;20400;-69
2022/09/24 09:09:43;;;;;;;11.48;2.15;;;;;;;13.50;100.00;101449.44;5114035;28;20078;-69
2022/09/24 09:12:22;;;;;;;7.68;1.75;;;;;;;13.54;100.00;101445.47;5113160;28;20024;-69
2022/09/24 09:14:49;;;;;;;9.38;1.80;;;;;;;13.65;100.00;101453.34;5113846;28;20055;-70
2022/09/24 09:17:28;;;;;;;10.32;1.83;;;;;;;13.63;100.00;101452.66;5113835;28;20032;-70
2022/09/24 09:20:00;;;;;;;15.27;1.92;;;;;;;13.66;100.00;101451.50;5114121;28;20138;-70
2022/09/24 09:22:29;;;;;;;9.80;1.85;;;;;;;13.65;100.00;101445.31;5114269;28;20027;-71
2022/09/24 09:25:01;;;;;;;13.77;1.65;;;;;;;13.61;100.00;101453.78;5113930;28;20077;-70
2022/09/24 09:27:28;;;;;;;10.25;2.03;;;;;;;13.60;100.00;101454.75;5113727;28;20039;-69
2022/09/24 09:29:56;;;;;;;12.95;2.00;;;;;;;13.60;100.00;101465.47;5113541;28;20042;-70
2022/09/24 09:32:54;;;;;;;8.35;1.48;;;;;;;13.60;100.00;101462.78;5113527;28;20463;-70
2022/09/24 09:35:40;;;;;;;13.10;1.77;;;;;;;13.53;100.00;101470.56;5113983;28;20032;-70
2022/09/24 09:38:11;;;;;;;10.50;2.15;;;;;;;13.59;100.00;101456.59;5113987;28;20515;-70
2022/09/24 09:41:13;;;;;;;18.17;2.17;;;;;;;13.62;100.00;101455.47;5113751;28;20062;-70
2022/09/24 09:43:40;;;;;;;11.98;1.58;;;;;;;13.65;100.00;101457.88;5112427;28;20055;-71
2022/09/24 09:46:20;;;;;;;9.35;1.58;;;;;;;13.67;100.00;101466.56;5113453;28;20528;-72
2022/09/24 09:48:53;;;;;;;8.60;1.73;;;;;;;13.71;100.00;101465.31;5113944;28;20371;-70
2022/09/24 09:51:20;;;;;;;9.68;1.70;;;;;;;13.72;100.00;101469.69;5113746;28;20088;-70
2022/09/24 09:54:02;;;;;;;10.98;2.40;;;;;;;13.71;100.00;101468.81;5113178;28;20399;-69
2022/09/24 09:56:43;;;;;;;6.45;1.73;;;;;;;13.69;100.00;101469.94;5113090;28;20031;-69
2022/09/24 09:59:11;;;;;;;;;;;;;;;13.68;100.00;101473.63;5113702;28;20035;-69
2022/09/24 10:01:41;;;;;;;7.30;1.60;;;;;;;13.78;100.00;101470.91;5113097;28;19912;-69
2022/09/24 10:04:36;;;;;;;11.77;1.97;;;;;;;13.88;100.00;101469.06;5112941;28;20028;-69
2022/09/24 10:07:13;;;;;;;8.10;1.73;;;;;;;14.01;100.00;101474.09;5113332;28;20028;-70
2022/09/24 10:09:41;;;;;;;10.32;1.42;;;;;;;14.08;100.00;101468.00;5113996;28;20472;-70
2022/09/24 10:12:12;;;;;;;7.78;1.55;;;;;;;14.22;100.00;101469.34;5113252;28;20440;-70
2022/09/24 10:14:37;;;;;;;;;;;;;;;14.32;100.00;101471.16;5112992;28;20380;-69
2022/09/24 10:17:04;;;;;;;6.72;1.33;;;;;;;14.40;100.00;101468.56;5112939;28;19923;-70
2022/09/24 10:19:33;;;;;;;8.43;1.67;;;;;;;14.42;100.00;101474.59;5116144;28;20138;-71
2022/09/24 10:22:09;;;;;;;16.83;2.05;;;;;;;14.54;100.00;101475.25;5117080;28;20023;-69
2022/09/24 10:24:36;;;;;;;6.90;1.48;;;;;;;14.48;100.00;101470.50;5117050;28;20038;-70
2022/09/24 10:27:10;;;;;;;6.80;1.48;;;;;;;14.40;100.00;101471.25;5117340;28;20031;-69
2022/09/24 10:32:28;;;;;;;7.57;1.40;;;;;;;14.24;100.00;101472.75;5117077;28;20073;-69
2022/09/24 10:35:22;;;;;;;5.90;1.35;;;;;;;14.23;100.00;101480.91;5116763;28;20027;-70
2022/09/24 10:37:58;;;;;;;6.97;1.80;;;;;;;14.29;100.00;101483.81;5116713;28;20114;-71
2022/09/24 10:40:29;;;;;;;6.80;1.60;;;;;;;14.33;100.00;101484.41;5117165;28;20031;-70
2022/09/24 10:43:00;;;;;;;7.28;1.50;;;;;;;14.30;100.00;101476.63;5117186;28;20032;-70
2022/09/24 10:45:45;;;;;;;6.75;1.35;;;;;;;14.46;100.00;101478.69;5116612;28;20065;-70
2022/09/24 10:48:26;;;;;;;7.90;1.52;;;;;;;14.52;100.00;101487.94;5116516;28;20023;-68
2022/09/24 10:51:30;;;;;;;4.55;1.42;;;;;;;14.59;100.00;101489.03;5116495;28;20036;-70
2022/09/24 10:54:13;;;;;;;6.90;1.50;;;;;;;14.56;100.00;101484.81;5084147;28;20035;-70
2022/09/24 10:56:52;;;;;;;7.22;1.55;;;;;;;14.58;100.00;101490.88;5116844;28;20028;-70
2022/09/24 10:59:50;;;;;;;7.15;1.42;;;;;;;14.56;100.00;101484.81;5115377;28;20024;-70
2022/09/24 11:02:24;;;;;;;8.52;1.55;;;;;;;14.55;100.00;101490.34;5115692;28;20051;-69
2022/09/24 11:04:49;;;;;;;5.50;1.45;;;;;;;14.52;100.00;101496.00;5116026;28;20120;-69
2022/09/24 11:07:42;;;;;;;9.40;1.45;;;;;;;14.45;100.00;101485.00;5115798;28;20463;-70
2022/09/24 11:10:45;;;;;;;8.57;1.80;;;;;;;14.35;100.00;101495.78;5116708;28;20135;-70
2022/09/24 11:13:22;;;;;;;12.55;1.73;;;;;;;14.29;100.00;101499.06;5116470;28;20427;-72
2022/09/24 11:15:59;;;;;;;9.77;1.48;;;;;;;14.22;100.00;101501.47;5116422;28;20063;-70
2022/09/24 11:18:52;;;;;;;8.70;1.73;;;;;;;14.11;100.00;101505.16;5116411;28;20055;-70
2022/09/24 11:21:33;;;;;;;7.68;1.92;;;;;;;14.06;100.00;101502.09;5116326;28;20024;-70
2022/09/24 11:24:35;;;;;;;9.70;1.77;;;;;;;13.95;100.00;101496.06;5116393;28;20061;-70
2022/09/24 11:27:38;;;;;;;7.95;1.67;;;;;;;13.87;100.00;101496.81;5115877;28;20032;-70
2022/09/24 11:30:09;;;;;;;6.35;1.60;;;;;;;13.88;100.00;101501.16;5114655;28;20036;-69
2022/09/24 11:32:53;;;;;;;7.35;1.40;;;;;;;13.85;100.00;101498.75;5115837;28;20031;-69
2022/09/24 11:35:52;;;;;;;8.13;1.42;;;;;;;13.85;100.00;101502.31;5116033;28;20035;-69
2022/09/24 11:38:28;;;;;;;9.63;1.65;;;;;;;13.80;100.00;101506.38;5116123;28;20041;-69
2022/09/24 11:41:21;;;;;;;9.30;1.90;;;;;;;13.69;100.00;101507.38;5114833;28;20036;-69